Time;durP1;ratioP1;P1;durP2;ratioP2;P2;SDS_P1;SDS_P2;PMS_P1;PMS_P2;Temp;Humidity;BMP_temperature;BMP_pressure;BME280_temperature;BME280_humidity;BME280_pressure;Samples;Min_cycle;Max_cycle;Signal;HPM_P1;HPM_P2
2023/06/12 00:01:47;;;;;;;3.03;2.78;;;;;;;;;;5050843;28;20385;-83
2023/06/12 00:04:13;;;;;;;3.00;2.70;;;;;;;;;;5050886;28;20456;-83
2023/06/12 00:06:39;;;;;;;2.75;2.55;;;;;;;;;;5050992;28;20381;-83
2023/06/12 00:09:06;;;;;;;2.95;2.75;;;;;;;;;;5050824;28;20412;-83
2023/06/12 00:11:32;;;;;;;3.08;2.88;;;;;;;;;;5050749;28;20465;-83
2023/06/12 00:13:58;;;;;;;3.25;2.95;;;;;;;;;;5050708;28;20386;-83
2023/06/12 00:16:24;;;;;;;4.20;2.80;;;;;;;;;;5050887;28;20456;-83
2023/06/12 00:18:51;;;;;;;3.17;2.97;;;;;;;;;;5050820;28;20385;-83
2023/06/12 00:21:19;;;;;;;3.28;2.97;;;;;;;;;;5050557;28;20464;-83
2023/06/12 00:23:46;;;;;;;3.10;2.90;;;;;;;;;;5050357;28;20388;-83
2023/06/12 00:26:12;;;;;;;3.20;3.00;;;;;;;;;;5050741;28;20385;-83
2023/06/12 00:28:38;;;;;;;3.10;2.90;;;;;;;;;;5050591;28;20412;-83
2023/06/12 00:31:04;;;;;;;3.20;2.90;;;;;;;;;;5050501;28;20414;-83
2023/06/12 00:33:30;;;;;;;3.22;2.92;;;;;;;;;;5051824;28;20381;-83
2023/06/12 00:35:56;;;;;;;3.50;3.25;;;;;;;;;;5054308;28;20885;-83
2023/06/12 00:38:22;;;;;;;3.22;3.03;;;;;;;;;;5054728;28;20377;-83
2023/06/12 00:40:49;;;;;;;3.08;2.85;;;;;;;;;;5070896;28;20377;-83
2023/06/12 00:43:15;;;;;;;3.13;2.92;;;;;;;;;;5056642;28;20384;-83
2023/06/12 00:45:41;;;;;;;3.30;3.10;;;;;;;;;;5069508;28;20381;-83
2023/06/12 00:48:08;;;;;;;3.13;2.83;;;;;;;;;;5057974;28;20418;-83
2023/06/12 00:50:35;;;;;;;3.35;3.08;;;;;;;;;;5053693;28;20842;-83
2023/06/12 00:53:01;;;;;;;3.63;3.13;;;;;;;;;;5054047;28;20385;-83
2023/06/12 00:55:30;;;;;;;3.30;3.00;;;;;;;;;;5054168;28;20737;-83
2023/06/12 00:57:57;;;;;;;3.33;3.10;;;;;;;;;;5053943;28;20369;-84
2023/06/12 01:00:24;;;;;;;3.40;3.20;;;;;;;;;;5053601;28;20386;-82
2023/06/12 01:02:51;;;;;;;2.97;2.78;;;;;;;;;;5053872;28;20393;-83
2023/06/12 01:05:32;;;;;;;3.17;2.97;;;;;;;;;;5053261;28;20386;-83
2023/06/12 01:08:16;;;;;;;3.38;3.17;;;;;;;;;;5053636;28;20373;-83
2023/06/12 01:10:46;;;;;;;3.40;3.10;;;;;;;;;;5053517;28;20389;-83
2023/06/12 01:13:13;;;;;;;4.05;3.47;;;;;;;;;;5053626;28;20370;-83
2023/06/12 01:15:39;;;;;;;3.70;3.30;;;;;;;;;;5053577;28;20436;-83
2023/06/12 01:18:06;;;;;;;3.25;2.95;;;;;;;;;;5053452;28;20870;-83
2023/06/12 01:20:33;;;;;;;3.70;3.30;;;;;;;;;;5035438;28;20435;-83
2023/06/12 01:23:11;;;;;;;3.75;3.45;;;;;;;;;;5053344;28;20378;-83
2023/06/12 01:25:54;;;;;;;3.70;3.40;;;;;;;;;;5053485;28;20374;-83
2023/06/12 01:28:23;;;;;;;3.42;3.22;;;;;;;;;;5053090;28;20468;-83
2023/06/12 01:31:01;;;;;;;4.07;3.30;;;;;;;;;;5052496;28;20758;-83
2023/06/12 01:33:30;;;;;;;3.42;3.13;;;;;;;;;;5053246;28;20400;-83
2023/06/12 01:35:58;;;;;;;3.35;3.15;;;;;;;;;;5053206;28;20378;-83
2023/06/12 01:38:24;;;;;;;3.75;3.45;;;;;;;;;;5053177;28;20840;-83
2023/06/12 01:40:51;;;;;;;3.42;3.22;;;;;;;;;;5053035;28;20419;-83
2023/06/12 01:43:17;;;;;;;4.10;3.80;;;;;;;;;;5053018;28;20374;-84
2023/06/12 01:45:44;;;;;;;3.67;3.47;;;;;;;;;;5052024;28;20993;-83
2023/06/12 01:48:10;;;;;;;3.80;3.50;;;;;;;;;;5052434;28;20461;-82
2023/06/12 01:50:36;;;;;;;3.75;3.47;;;;;;;;;;5054433;28;20481;-83
2023/06/12 01:53:02;;;;;;;3.95;3.63;;;;;;;;;;5068302;28;20860;-83
2023/06/12 01:55:29;;;;;;;3.80;3.53;;;;;;;;;;5053690;28;20400;-83
2023/06/12 01:57:55;;;;;;;3.75;3.50;;;;;;;;;;5054915;28;20385;-83
2023/06/12 02:00:21;;;;;;;4.10;3.57;;;;;;;;;;5057279;28;20389;-83
2023/06/12 02:02:48;;;;;;;4.10;3.55;;;;;;;;;;5052637;28;20962;-83
2023/06/12 02:05:14;;;;;;;3.95;3.65;;;;;;;;;;5052599;28;20411;-83
2023/06/12 02:07:40;;;;;;;4.00;3.70;;;;;;;;;;5052306;28;20420;-83
2023/06/12 02:10:07;;;;;;;3.80;3.50;;;;;;;;;;5052271;28;20409;-84
2023/06/12 02:12:33;;;;;;;3.78;3.50;;;;;;;;;;5052490;28;20783;-83
2023/06/12 02:15:00;;;;;;;4.10;3.90;;;;;;;;;;5052230;28;20493;-83
2023/06/12 02:17:26;;;;;;;3.80;3.50;;;;;;;;;;5052185;28;20413;-84
2023/06/12 02:19:52;;;;;;;3.63;3.42;;;;;;;;;;5052242;28;20472;-83
2023/06/12 02:22:18;;;;;;;3.93;3.63;;;;;;;;;;5052193;28;20954;-83
2023/06/12 02:24:44;;;;;;;4.07;3.78;;;;;;;;;;5052018;28;20453;-83
2023/06/12 02:27:11;;;;;;;3.78;3.53;;;;;;;;;;5052031;28;20381;-83
2023/06/12 02:29:37;;;;;;;3.92;3.63;;;;;;;;;;5051619;28;20932;-83
2023/06/12 02:32:03;;;;;;;3.53;3.33;;;;;;;;;;5032090;28;20427;-83
2023/06/12 02:34:29;;;;;;;5.05;3.75;;;;;;;;;;5032274;28;20751;-83
2023/06/12 02:36:55;;;;;;;3.70;3.40;;;;;;;;;;5031989;28;20383;-83
2023/06/12 02:39:22;;;;;;;3.92;3.63;;;;;;;;;;5032042;28;20391;-83
2023/06/12 02:41:48;;;;;;;3.65;3.45;;;;;;;;;;5031959;28;20383;-83
2023/06/12 02:44:14;;;;;;;3.90;3.60;;;;;;;;;;5031952;28;20411;-83
2023/06/12 02:46:53;;;;;;;3.90;3.60;;;;;;;;;;5031535;28;20486;-83
2023/06/12 02:49:20;;;;;;;3.70;3.40;;;;;;;;;;5031510;28;20417;-83
2023/06/12 02:51:46;;;;;;;3.78;3.58;;;;;;;;;;5031751;28;20375;-83
2023/06/12 02:54:13;;;;;;;4.15;3.85;;;;;;;;;;5033229;28;20376;-83
2023/06/12 02:56:41;;;;;;;4.20;3.90;;;;;;;;;;5035504;28;20382;-83
2023/06/12 02:59:08;;;;;;;4.22;3.92;;;;;;;;;;5034887;28;20830;-83
2023/06/12 03:01:35;;;;;;;4.22;3.97;;;;;;;;;;5034527;28;20743;-82
2023/06/12 03:04:01;;;;;;;4.40;4.00;;;;;;;;;;5051444;28;20381;-83
2023/06/12 03:06:28;;;;;;;4.32;4.03;;;;;;;;;;5051576;28;20388;-83
2023/06/12 03:08:55;;;;;;;4.37;4.03;;;;;;;;;;5051373;28;20924;-83
2023/06/12 03:11:22;;;;;;;4.40;4.00;;;;;;;;;;5051400;28;20446;-83
2023/06/12 03:13:48;;;;;;;5.07;3.60;;;;;;;;;;5051239;28;20896;-83
2023/06/12 03:16:15;;;;;;;4.50;4.20;;;;;;;;;;5051244;28;20396;-83
2023/06/12 03:18:40;;;;;;;4.20;3.90;;;;;;;;;;5051349;28;20388;-83
2023/06/12 03:21:07;;;;;;;3.97;3.67;;;;;;;;;;5040729;28;20391;-83
2023/06/12 03:23:33;;;;;;;4.20;4.00;;;;;;;;;;5029922;28;20379;-83
2023/06/12 03:25:59;;;;;;;4.18;3.88;;;;;;;;;;5031184;28;20395;-83
2023/06/12 03:28:25;;;;;;;4.22;3.92;;;;;;;;;;5031184;28;20388;-82
2023/06/12 03:30:51;;;;;;;4.20;3.90;;;;;;;;;;5019772;28;20417;-83
2023/06/12 03:33:17;;;;;;;4.18;3.88;;;;;;;;;;5011577;28;20450;-83
2023/06/12 03:35:43;;;;;;;4.00;3.70;;;;;;;;;;5011405;28;20438;-83
2023/06/12 03:38:09;;;;;;;4.20;3.90;;;;;;;;;;5011438;28;20846;-83
2023/06/12 03:40:35;;;;;;;4.25;3.90;;;;;;;;;;5011201;28;20388;-83
2023/06/12 03:43:01;;;;;;;3.50;3.30;;;;;;;;;;5011379;28;20531;-83
2023/06/12 03:45:27;;;;;;;4.40;4.00;;;;;;;;;;5011372;28;20472;-83
2023/06/12 03:47:53;;;;;;;4.00;3.80;;;;;;;;;;5011408;28;20858;-83
2023/06/12 03:50:19;;;;;;;3.97;3.70;;;;;;;;;;5011137;28;20419;-82
2023/06/12 03:52:45;;;;;;;4.32;4.03;;;;;;;;;;5011397;28;20400;-83
2023/06/12 03:55:12;;;;;;;4.10;3.80;;;;;;;;;;5011232;28;20395;-83
2023/06/12 03:57:38;;;;;;;4.18;3.78;;;;;;;;;;5011262;28;20381;-83
2023/06/12 04:00:05;;;;;;;4.22;3.92;;;;;;;;;;5012807;28;20389;-82
2023/06/12 04:02:31;;;;;;;3.90;3.70;;;;;;;;;;5010861;28;20419;-83
2023/06/12 04:04:57;;;;;;;4.53;4.22;;;;;;;;;;5010705;28;20388;-82
2023/06/12 04:07:23;;;;;;;4.20;3.80;;;;;;;;;;5010988;28;20420;-82
2023/06/12 04:09:49;;;;;;;4.70;4.38;;;;;;;;;;5014308;28;20821;-83
2023/06/12 04:12:15;;;;;;;7.68;7.07;;;;;;;;;;5015027;28;20893;-83
2023/06/12 04:14:41;;;;;;;4.80;4.50;;;;;;;;;;5014958;28;20719;-83
2023/06/12 04:17:07;;;;;;;4.07;3.78;;;;;;;;;;5014949;28;20381;-83
2023/06/12 04:19:36;;;;;;;4.20;3.90;;;;;;;;;;5014703;28;20490;-83
2023/06/12 04:22:02;;;;;;;4.07;3.85;;;;;;;;;;5014815;28;20878;-83
2023/06/12 04:24:30;;;;;;;4.50;4.10;;;;;;;;;;5014630;28;20387;-83
2023/06/12 04:27:00;;;;;;;4.20;3.90;;;;;;;;;;5014713;28;20392;-83
2023/06/12 04:29:27;;;;;;;4.57;4.18;;;;;;;;;;5014501;28;20432;-83
2023/06/12 04:31:54;;;;;;;4.35;4.05;;;;;;;;;;5050240;28;20498;-83
2023/06/12 04:34:20;;;;;;;4.20;3.90;;;;;;;;;;5052989;28;20467;-82
2023/06/12 04:36:47;;;;;;;4.60;4.20;;;;;;;;;;5053063;28;20866;-83
2023/06/12 04:39:13;;;;;;;4.10;3.80;;;;;;;;;;5052614;28;20452;-83
2023/06/12 04:41:40;;;;;;;4.32;4.03;;;;;;;;;;5052755;28;20389;-83
2023/06/12 04:44:06;;;;;;;4.20;3.90;;;;;;;;;;5052858;28;20377;-83
2023/06/12 04:46:35;;;;;;;4.00;3.70;;;;;;;;;;5052357;28;20870;-83
2023/06/12 04:49:02;;;;;;;4.22;3.92;;;;;;;;;;5052633;28;20906;-83
2023/06/12 04:51:28;;;;;;;4.68;4.18;;;;;;;;;;5052055;28;20377;-83
2023/06/12 04:53:55;;;;;;;4.63;4.22;;;;;;;;;;5052752;28;20392;-82
2023/06/12 04:56:21;;;;;;;4.72;4.32;;;;;;;;;;5034752;28;20397;-83
2023/06/12 04:58:48;;;;;;;4.30;4.00;;;;;;;;;;5052656;28;20901;-83
2023/06/12 05:01:14;;;;;;;4.47;4.18;;;;;;;;;;5059453;28;20379;-82
2023/06/12 05:03:41;;;;;;;4.30;4.00;;;;;;;;;;5052730;28;20858;-83
2023/06/12 05:06:08;;;;;;;4.60;4.15;;;;;;;;;;5061336;28;20386;-82
2023/06/12 05:08:37;;;;;;;4.60;4.20;;;;;;;;;;5068565;28;20462;-82
2023/06/12 05:11:03;;;;;;;4.70;4.25;;;;;;;;;;5058912;28;20387;-83
2023/06/12 05:13:30;;;;;;;4.90;4.50;;;;;;;;;;5064306;28;20385;-83
2023/06/12 05:15:56;;;;;;;4.63;4.22;;;;;;;;;;5052326;28;20377;-82
2023/06/12 05:18:22;;;;;;;4.63;4.22;;;;;;;;;;5052316;28;20870;-83
2023/06/12 05:20:48;;;;;;;4.50;4.20;;;;;;;;;;5048480;28;20408;-83
2023/06/12 05:23:14;;;;;;;5.30;4.80;;;;;;;;;;5034405;28;20408;-83
2023/06/12 05:25:40;;;;;;;5.10;4.40;;;;;;;;;;5052256;28;20401;-82
2023/06/12 05:28:06;;;;;;;4.78;4.47;;;;;;;;;;5052259;28;20374;-82
2023/06/12 05:30:32;;;;;;;4.70;4.40;;;;;;;;;;4990062;28;1758498;-83
2023/06/12 05:32:58;;;;;;;4.70;4.40;;;;;;;;;;5053217;28;20389;-82
2023/06/12 05:35:24;;;;;;;4.30;4.00;;;;;;;;;;5053041;28;20855;-83
2023/06/12 05:37:51;;;;;;;4.70;4.40;;;;;;;;;;5053120;28;20392;-83
2023/06/12 05:40:17;;;;;;;5.10;4.70;;;;;;;;;;5052635;28;20400;-83
2023/06/12 05:42:43;;;;;;;5.10;4.70;;;;;;;;;;5052974;28;20456;-83
2023/06/12 05:45:09;;;;;;;4.80;4.40;;;;;;;;;;5053137;28;20428;-83
2023/06/12 05:47:35;;;;;;;5.05;4.65;;;;;;;;;;5052954;28;20386;-83
2023/06/12 05:50:01;;;;;;;5.18;4.80;;;;;;;;;;5052676;28;20409;-83
2023/06/12 05:52:27;;;;;;;5.18;4.68;;;;;;;;;;5052904;28;20381;-82
2023/06/12 05:54:53;;;;;;;5.20;4.90;;;;;;;;;;5052632;28;20401;-82
2023/06/12 05:57:19;;;;;;;5.20;4.55;;;;;;;;;;5052731;28;20451;-82
2023/06/12 05:59:47;;;;;;;4.88;4.47;;;;;;;;;;5052522;28;20381;-83
2023/06/12 06:02:14;;;;;;;4.80;4.50;;;;;;;;;;5052726;28;20377;-83
2023/06/12 06:04:40;;;;;;;4.80;4.50;;;;;;;;;;5052530;28;20388;-83
2023/06/12 06:07:11;;;;;;;5.20;4.90;;;;;;;;;;5065397;28;20380;-83
2023/06/12 06:09:38;;;;;;;4.70;4.30;;;;;;;;;;5052269;28;20396;-82
2023/06/12 06:12:05;;;;;;;4.90;4.60;;;;;;;;;;5071038;28;20379;-83
2023/06/12 06:14:31;;;;;;;4.57;4.28;;;;;;;;;;5040769;28;20750;-84
2023/06/12 06:16:57;;;;;;;5.07;4.68;;;;;;;;;;5052478;28;20708;-83
2023/06/12 06:19:23;;;;;;;5.15;4.65;;;;;;;;;;5034748;28;20506;-84
2023/06/12 06:21:49;;;;;;;4.80;4.40;;;;;;;;;;5052123;28;20496;-83
2023/06/12 06:24:15;;;;;;;5.55;4.95;;;;;;;;;;5052317;28;20908;-83
2023/06/12 06:26:41;;;;;;;5.25;4.85;;;;;;;;;;5052173;28;20393;-83
2023/06/12 06:29:07;;;;;;;5.07;4.68;;;;;;;;;;5052163;28;20413;-83
2023/06/12 06:31:33;;;;;;;5.20;4.78;;;;;;;;;;5051357;28;20423;-83
2023/06/12 06:33:59;;;;;;;4.88;4.55;;;;;;;;;;5052117;28;20396;-84
2023/06/12 06:36:25;;;;;;;5.03;4.63;;;;;;;;;;5051908;28;20373;-83
2023/06/12 06:38:51;;;;;;;4.97;4.57;;;;;;;;;;5052072;28;20381;-83
2023/06/12 06:41:18;;;;;;;4.70;4.30;;;;;;;;;;5051781;28;20385;-83
2023/06/12 06:43:44;;;;;;;4.82;4.43;;;;;;;;;;5051183;28;20380;-83
2023/06/12 06:46:10;;;;;;;4.85;4.53;;;;;;;;;;5051251;28;20442;-83
2023/06/12 06:48:36;;;;;;;4.63;4.25;;;;;;;;;;5051472;28;20789;-83
2023/06/12 06:51:02;;;;;;;5.40;4.90;;;;;;;;;;5051587;28;20468;-83
2023/06/12 06:53:28;;;;;;;4.57;4.27;;;;;;;;;;5051739;28;20883;-83
2023/06/12 06:55:54;;;;;;;4.60;4.30;;;;;;;;;;5033694;28;20390;-83
2023/06/12 06:58:20;;;;;;;4.75;4.35;;;;;;;;;;5051637;28;20391;-83
2023/06/12 07:00:46;;;;;;;4.85;4.53;;;;;;;;;;5051439;28;20430;-83
2023/06/12 07:03:12;;;;;;;4.70;4.40;;;;;;;;;;5051582;28;20385;-83
2023/06/12 07:05:38;;;;;;;4.63;4.20;;;;;;;;;;5051376;28;20886;-82
2023/06/12 07:08:04;;;;;;;4.53;4.20;;;;;;;;;;5055173;28;20401;-82
2023/06/12 07:10:30;;;;;;;4.78;4.28;;;;;;;;;;5059922;28;20439;-83
2023/06/12 07:12:57;;;;;;;4.82;4.22;;;;;;;;;;5062590;28;20765;-83
2023/06/12 07:15:24;;;;;;;4.63;4.20;;;;;;;;;;5054977;28;20385;-83
2023/06/12 07:17:50;;;;;;;4.72;4.00;;;;;;;;;;5051344;28;20413;-84
2023/06/12 07:20:16;;;;;;;4.43;4.00;;;;;;;;;;5051080;28;20381;-83
2023/06/12 07:22:42;;;;;;;4.90;4.15;;;;;;;;;;5051131;28;20382;-84
2023/06/12 07:25:10;;;;;;;4.10;3.80;;;;;;;;;;5051240;28;20381;-83
2023/06/12 07:27:35;;;;;;;4.85;4.43;;;;;;;;;;5050780;28;20386;-84
2023/06/12 07:30:01;;;;;;;4.28;3.97;;;;;;;;;;5050674;28;20432;-84
2023/06/12 07:32:28;;;;;;;4.10;3.80;;;;;;;;;;5051239;28;20366;-84
2023/06/12 07:34:55;;;;;;;4.35;4.03;;;;;;;;;;5033248;28;20412;-81
2023/06/12 07:37:21;;;;;;;4.32;4.00;;;;;;;;;;5051120;28;20814;-83
2023/06/12 07:39:47;;;;;;;4.07;3.78;;;;;;;;;;5050851;28;20480;-83
2023/06/12 07:42:14;;;;;;;4.20;3.90;;;;;;;;;;5050976;28;20388;-82
2023/06/12 07:44:40;;;;;;;4.20;3.90;;;;;;;;;;5054530;28;20389;-82
2023/06/12 07:47:06;;;;;;;4.30;4.00;;;;;;;;;;5055146;28;20392;-83
2023/06/12 07:49:32;;;;;;;3.53;3.33;;;;;;;;;;5055010;28;20454;-84
2023/06/12 07:51:59;;;;;;;3.85;3.65;;;;;;;;;;5054673;28;20385;-83
2023/06/12 07:54:25;;;;;;;4.25;3.85;;;;;;;;;;5055102;28;20405;-83
2023/06/12 07:56:51;;;;;;;3.70;3.50;;;;;;;;;;5054999;28;20369;-83
2023/06/12 07:59:18;;;;;;;3.90;3.60;;;;;;;;;;5055029;28;20382;-83
2023/06/12 08:01:44;;;;;;;3.90;3.60;;;;;;;;;;5054763;28;20889;-83
2023/06/12 08:04:10;;;;;;;3.65;3.35;;;;;;;;;;5054879;28;20381;-83
2023/06/12 08:06:37;;;;;;;3.80;3.50;;;;;;;;;;5054960;28;20381;-84
2023/06/12 08:09:04;;;;;;;3.95;3.47;;;;;;;;;;5054771;28;20405;-83
2023/06/12 08:11:30;;;;;;;3.90;3.63;;;;;;;;;;5063929;28;20398;-83
2023/06/12 08:13:56;;;;;;;3.90;3.60;;;;;;;;;;5059610;28;20743;-84
2023/06/12 08:16:25;;;;;;;3.85;3.65;;;;;;;;;;5060145;28;20393;-82
2023/06/12 08:18:52;;;;;;;4.53;3.60;;;;;;;;;;5070767;28;20382;-83
2023/06/12 08:21:18;;;;;;;4.10;3.70;;;;;;;;;;5059176;28;20381;-83
2023/06/12 08:23:44;;;;;;;3.63;3.33;;;;;;;;;;5054573;28;20428;-84
2023/06/12 08:26:10;;;;;;;3.53;3.33;;;;;;;;;;5054420;28;20480;-83
2023/06/12 08:28:37;;;;;;;3.92;3.53;;;;;;;;;;5054416;28;20385;-83
2023/06/12 08:31:04;;;;;;;4.88;3.42;;;;;;;;;;5054161;28;20397;-83
2023/06/12 08:33:30;;;;;;;3.90;3.50;;;;;;;;;;5054428;28;20431;-83
2023/06/12 08:35:58;;;;;;;3.70;3.40;;;;;;;;;;5054323;28;20378;-83
2023/06/12 08:38:24;;;;;;;3.63;3.40;;;;;;;;;;5054281;28;20448;-83
2023/06/12 08:40:53;;;;;;;3.58;3.28;;;;;;;;;;5053896;28;20393;-84
2023/06/12 08:43:19;;;;;;;3.50;3.20;;;;;;;;;;5054200;28;20385;-84
2023/06/12 08:45:48;;;;;;;4.70;3.20;;;;;;;;;;5054166;28;20472;-83
2023/06/12 08:48:16;;;;;;;3.45;3.15;;;;;;;;;;5035875;28;21004;-82
2023/06/12 08:50:43;;;;;;;3.38;3.10;;;;;;;;;;5053980;28;20480;-83
2023/06/12 08:53:10;;;;;;;3.55;3.35;;;;;;;;;;5053136;28;20377;-83
2023/06/12 08:55:40;;;;;;;3.35;3.05;;;;;;;;;;5053537;28;20922;-83
2023/06/12 08:58:09;;;;;;;3.65;3.10;;;;;;;;;;5053869;28;20381;-84
2023/06/12 09:00:35;;;;;;;3.43;3.13;;;;;;;;;;5053828;28;20917;-84
2023/06/12 09:03:04;;;;;;;3.90;3.07;;;;;;;;;;5053780;28;20400;-84
2023/06/12 09:05:34;;;;;;;3.47;3.00;;;;;;;;;;5053841;28;20385;-83
2023/06/12 09:08:02;;;;;;;3.40;3.20;;;;;;;;;;5053671;28;20855;-84
2023/06/12 09:10:28;;;;;;;3.47;3.17;;;;;;;;;;5035732;28;20471;-84
2023/06/12 09:12:55;;;;;;;3.92;3.05;;;;;;;;;;5053528;28;20847;-83
2023/06/12 09:15:22;;;;;;;3.45;3.15;;;;;;;;;;5066683;28;20379;-83
2023/06/12 09:17:49;;;;;;;6.23;3.13;;;;;;;;;;5056515;28;20375;-83
2023/06/12 09:20:27;;;;;;;3.60;3.10;;;;;;;;;;5062154;28;20455;-84
2023/06/12 09:22:53;;;;;;;3.35;3.05;;;;;;;;;;5055762;28;20386;-84
2023/06/12 09:25:20;;;;;;;3.22;3.03;;;;;;;;;;5071155;28;20433;-84
2023/06/12 09:27:46;;;;;;;3.40;3.20;;;;;;;;;;5073439;28;20379;-85
2023/06/12 09:30:12;;;;;;;3.40;3.10;;;;;;;;;;5073201;28;20422;-84
2023/06/12 09:32:40;;;;;;;3.10;2.70;;;;;;;;;;5073230;28;20383;-84
2023/06/12 09:35:07;;;;;;;3.40;3.03;;;;;;;;;;5073162;28;20384;-83
2023/06/12 09:37:33;;;;;;;4.80;3.15;;;;;;;;;;5073216;28;20376;-83
2023/06/12 09:40:10;;;;;;;3.05;2.85;;;;;;;;;;5055148;28;20390;-82
2023/06/12 09:42:36;;;;;;;3.40;3.10;;;;;;;;;;5072938;28;20418;-84
2023/06/12 09:45:19;;;;;;;3.45;3.15;;;;;;;;;;5056157;28;20389;-84
2023/06/12 09:47:49;;;;;;;5.28;2.90;;;;;;;;;;5053019;28;20818;-83
2023/06/12 09:50:15;;;;;;;4.15;3.22;;;;;;;;;;5067177;22;20841;-82
2023/06/12 09:52:43;;;;;;;3.20;2.90;;;;;;;;;;5051682;28;20396;-83
2023/06/12 09:55:10;;;;;;;3.60;3.20;;;;;;;;;;5052905;28;20385;-82
2023/06/12 09:57:38;;;;;;;3.20;2.88;;;;;;;;;;5052983;28;20409;-81
2023/06/12 10:00:11;;;;;;;2.90;2.53;;;;;;;;;;5051379;28;20389;-82
2023/06/12 10:02:38;;;;;;;3.00;2.80;;;;;;;;;;5053008;28;20378;-84
2023/06/12 10:05:06;;;;;;;3.30;3.00;;;;;;;;;;5052616;28;20843;-84
2023/06/12 10:07:34;;;;;;;4.05;2.70;;;;;;;;;;5052182;28;20866;-81
2023/06/12 10:10:06;;;;;;;3.35;3.05;;;;;;;;;;5052543;28;20500;-83
2023/06/12 10:12:32;;;;;;;6.43;3.00;;;;;;;;;;5052734;28;20735;-83
2023/06/12 10:14:59;;;;;;;5.13;3.10;;;;;;;;;;5052602;28;20384;-83
2023/06/12 10:17:25;;;;;;;3.13;2.80;;;;;;;;;;5052643;28;20381;-83
2023/06/12 10:19:51;;;;;;;4.23;2.87;;;;;;;;;;5052359;28;20472;-84
2023/06/12 10:22:17;;;;;;;3.28;3.00;;;;;;;;;;5056326;28;20383;-81
2023/06/12 10:24:44;;;;;;;3.80;2.85;;;;;;;;;;5062411;28;20855;-81
2023/06/12 10:27:11;;;;;;;2.95;2.75;;;;;;;;;;5055882;28;20404;-82
2023/06/12 10:29:38;;;;;;;3.80;3.37;;;;;;;;;;5060308;28;20929;-81
2023/06/12 10:32:08;;;;;;;3.50;2.80;;;;;;;;;;5061758;28;21067;-82
2023/06/12 10:34:35;;;;;;;3.95;2.85;;;;;;;;;;5052332;28;20409;-83
2023/06/12 10:37:22;;;;;;;3.65;3.00;;;;;;;;;;5052312;28;20877;-82
2023/06/12 10:39:48;;;;;;;3.38;3.08;;;;;;;;;;5015539;28;20395;-82
2023/06/12 10:42:15;;;;;;;4.10;2.80;;;;;;;;;;5032340;28;20383;-81
2023/06/12 10:44:42;;;;;;;3.30;3.00;;;;;;;;;;5032209;28;20957;-81
2023/06/12 10:47:37;;;;;;;3.70;2.97;;;;;;;;;;5032101;28;20891;-82
2023/06/12 10:50:05;;;;;;;2.92;2.65;;;;;;;;;;5045110;28;20421;-85
2023/06/12 10:52:31;;;;;;;3.35;3.05;;;;;;;;;;5051543;28;20373;-83
2023/06/12 10:55:15;;;;;;;3.17;2.72;;;;;;;;;;5052031;28;20431;-82
2023/06/12 10:57:49;;;;;;;3.00;2.80;;;;;;;;;;5051645;28;20786;-83
2023/06/12 11:00:16;;;;;;;2.88;2.67;;;;;;;;;;5051628;28;20381;-83
2023/06/12 11:02:43;;;;;;;3.47;2.70;;;;;;;;;;5052181;28;20877;-83
2023/06/12 11:05:09;;;;;;;3.20;2.70;;;;;;;;;;5051766;28;20382;-83
2023/06/12 11:07:35;;;;;;;3.25;2.95;;;;;;;;;;5051705;28;20459;-83
2023/06/12 11:10:11;;;;;;;3.33;2.65;;;;;;;;;;5051610;28;20778;-83
2023/06/12 11:12:45;;;;;;;2.78;2.58;;;;;;;;;;5051881;28;20384;-83
2023/06/12 11:15:11;;;;;;;2.90;2.67;;;;;;;;;;5051721;28;20465;-82
2023/06/12 11:17:37;;;;;;;3.17;2.63;;;;;;;;;;5050889;28;20385;-82
2023/06/12 11:20:05;;;;;;;5.22;2.97;;;;;;;;;;5051386;28;20389;-84
2023/06/12 11:22:31;;;;;;;3.50;2.50;;;;;;;;;;5051491;28;20439;-83
2023/06/12 11:25:01;;;;;;;2.72;2.53;;;;;;;;;;5059448;28;20388;-83
2023/06/12 11:27:27;;;;;;;3.80;2.80;;;;;;;;;;5064715;28;20439;-84
2023/06/12 11:29:53;;;;;;;3.17;2.88;;;;;;;;;;5060791;28;20888;-83
2023/06/12 11:32:20;;;;;;;2.78;2.50;;;;;;;;;;5063058;28;20405;-83
2023/06/12 11:34:46;;;;;;;3.50;2.92;;;;;;;;;;5063112;28;20436;-83
2023/06/12 11:37:19;;;;;;;3.10;2.33;;;;;;;;;;5051218;28;20435;-82
2023/06/12 11:39:45;;;;;;;3.00;2.80;;;;;;;;;;5051340;28;20412;-82
2023/06/12 11:42:11;;;;;;;2.75;2.55;;;;;;;;;;5051425;28;20392;-83
2023/06/12 11:44:38;;;;;;;3.08;2.40;;;;;;;;;;5051120;28;20385;-82
2023/06/12 11:47:05;;;;;;;2.63;2.43;;;;;;;;;;5048999;28;20389;-82
2023/06/12 11:49:32;;;;;;;2.85;2.65;;;;;;;;;;5050937;28;20405;-83
2023/06/12 11:51:58;;;;;;;4.10;2.80;;;;;;;;;;5051361;28;20897;-84
2023/06/12 11:54:24;;;;;;;3.85;2.70;;;;;;;;;;5051166;28;20373;-83
2023/06/12 11:56:51;;;;;;;3.10;2.70;;;;;;;;;;5051156;28;20750;-83
2023/06/12 11:59:18;;;;;;;2.83;2.63;;;;;;;;;;5051170;28;20381;-83
2023/06/12 12:01:48;;;;;;;2.80;2.60;;;;;;;;;;5051056;28;20534;-82
2023/06/12 12:04:17;;;;;;;3.08;2.45;;;;;;;;;;5051052;28;20388;-83
2023/06/12 12:06:50;;;;;;;3.30;2.60;;;;;;;;;;5051020;28;20381;-83
2023/06/12 12:09:23;;;;;;;3.05;2.67;;;;;;;;;;5051040;28;20429;-83
2023/06/12 12:11:49;;;;;;;23.30;5.80;;;;;;;;;;5051061;28;20961;-83
2023/06/12 12:14:15;;;;;;;3.50;2.57;;;;;;;;;;5050936;28;20388;-84
2023/06/12 12:16:44;;;;;;;3.00;2.70;;;;;;;;;;5050934;28;20788;-83
2023/06/12 12:19:40;;;;;;;3.10;2.80;;;;;;;;;;5050936;28;20389;-82
2023/06/12 12:22:06;;;;;;;3.10;2.83;;;;;;;;;;5029993;28;20404;-83
2023/06/12 12:24:38;;;;;;;4.45;2.90;;;;;;;;;;5050792;28;20385;-83
2023/06/12 12:27:04;;;;;;;3.50;2.60;;;;;;;;;;5050931;28;20381;-83
2023/06/12 12:29:32;;;;;;;4.13;2.78;;;;;;;;;;5052467;28;20492;-83
2023/06/12 12:31:58;;;;;;;2.60;2.40;;;;;;;;;;5067991;28;20464;-82
2023/06/12 12:34:26;;;;;;;3.83;2.92;;;;;;;;;;5059973;28;20412;-82
2023/06/12 12:36:52;;;;;;;3.03;2.50;;;;;;;;;;5054789;28;20404;-83
2023/06/12 12:39:18;;;;;;;3.23;2.63;;;;;;;;;;5054490;28;20460;-82
2023/06/12 12:41:44;;;;;;;2.60;2.40;;;;;;;;;;5054365;28;20385;-82
2023/06/12 12:44:10;;;;;;;2.87;2.63;;;;;;;;;;5054216;28;20977;-82
2023/06/12 12:46:37;;;;;;;3.47;2.77;;;;;;;;;;5054001;28;20766;-82
2023/06/12 12:49:03;;;;;;;3.22;2.92;;;;;;;;;;5054183;28;20444;-83
2023/06/12 12:51:29;;;;;;;2.83;2.63;;;;;;;;;;5053851;28;20441;-82
2023/06/12 12:53:56;;;;;;;3.13;2.83;;;;;;;;;;5054287;28;20381;-83
2023/06/12 12:56:22;;;;;;;3.45;2.78;;;;;;;;;;5053754;28;20408;-82
2023/06/12 12:58:49;;;;;;;3.20;2.90;;;;;;;;;;5054052;28;20381;-83
2023/06/12 13:01:15;;;;;;;3.33;3.03;;;;;;;;;;5053686;28;21081;-83
2023/06/12 13:03:41;;;;;;;2.90;2.70;;;;;;;;;;5053892;28;20381;-83
2023/06/12 13:06:08;;;;;;;3.20;2.90;;;;;;;;;;5052654;28;20874;-83
2023/06/12 13:08:35;;;;;;;3.13;2.72;;;;;;;;;;5054009;28;20382;-83
2023/06/12 13:11:02;;;;;;;2.90;2.70;;;;;;;;;;5053688;28;20413;-83
2023/06/12 13:13:28;;;;;;;2.70;2.50;;;;;;;;;;5053808;28;20696;-83
2023/06/12 13:15:54;;;;;;;4.13;3.10;;;;;;;;;;5053820;28;20384;-83
2023/06/12 13:18:20;;;;;;;3.58;3.00;;;;;;;;;;5053810;28;20385;-83
2023/06/12 13:20:46;;;;;;;3.03;2.83;;;;;;;;;;5053528;28;20465;-84
2023/06/12 13:23:13;;;;;;;12.20;3.13;;;;;;;;;;5053149;28;20476;-84
2023/06/12 13:25:39;;;;;;;3.22;3.00;;;;;;;;;;5053170;28;20432;-84
2023/06/12 13:28:05;;;;;;;3.00;2.70;;;;;;;;;;5053472;28;20381;-84
2023/06/12 13:30:31;;;;;;;3.22;2.92;;;;;;;;;;5053396;28;20401;-83
2023/06/12 13:32:57;;;;;;;3.15;2.70;;;;;;;;;;5053253;28;20392;-83
2023/06/12 13:35:23;;;;;;;3.55;2.80;;;;;;;;;;5062149;28;20429;-83
2023/06/12 13:37:49;;;;;;;2.97;2.72;;;;;;;;;;5064336;28;20374;-83
2023/06/12 13:40:16;;;;;;;3.58;2.60;;;;;;;;;;5069769;28;20381;-82
2023/06/12 13:42:44;;;;;;;3.45;3.15;;;;;;;;;;5057771;28;20445;-82
2023/06/12 13:45:10;;;;;;;3.03;2.83;;;;;;;;;;5063352;28;20391;-82
2023/06/12 13:47:36;;;;;;;3.03;2.60;;;;;;;;;;5052841;28;20384;-82
2023/06/12 13:50:03;;;;;;;3.17;2.97;;;;;;;;;;5052613;28;20409;-83
2023/06/12 13:52:30;;;;;;;3.22;2.72;;;;;;;;;;5053063;28;20396;-82
2023/06/12 13:54:56;;;;;;;3.20;2.72;;;;;;;;;;5052992;28;20874;-82
2023/06/12 13:57:22;;;;;;;2.88;2.67;;;;;;;;;;5052879;28;20424;-81
2023/06/12 13:59:48;;;;;;;2.67;2.58;;;;;;;;;;5052822;28;20459;-81
2023/06/12 14:02:14;;;;;;;2.85;2.65;;;;;;;;;;5052772;28;20444;-82
2023/06/12 14:04:40;;;;;;;3.03;2.83;;;;;;;;;;5052791;28;20386;-81
2023/06/12 14:07:06;;;;;;;3.22;2.85;;;;;;;;;;5052626;28;20385;-82
2023/06/12 14:09:32;;;;;;;4.65;3.00;;;;;;;;;;5052493;28;20913;-82
2023/06/12 14:11:58;;;;;;;3.58;2.70;;;;;;;;;;5052548;28;20374;-81
2023/06/12 14:14:26;;;;;;;2.95;2.75;;;;;;;;;;5052946;28;20378;-81
2023/06/12 14:16:52;;;;;;;2.80;2.60;;;;;;;;;;5052619;28;20383;-82
2023/06/12 14:19:18;;;;;;;3.07;2.77;;;;;;;;;;5052448;28;20761;-81
2023/06/12 14:21:44;;;;;;;3.30;3.00;;;;;;;;;;5052906;28;20770;-82
2023/06/12 14:24:10;;;;;;;3.33;2.77;;;;;;;;;;5052413;28;20386;-81
2023/06/12 14:26:36;;;;;;;4.10;2.70;;;;;;;;;;5052404;28;20394;-81
2023/06/12 14:29:02;;;;;;;3.08;2.85;;;;;;;;;;5052257;28;20473;-82
2023/06/12 14:31:28;;;;;;;3.00;2.70;;;;;;;;;;5052101;28;20382;-82
2023/06/12 14:33:54;;;;;;;3.60;2.55;;;;;;;;;;5052091;28;20381;-82
2023/06/12 14:36:20;;;;;;;3.05;2.85;;;;;;;;;;5052214;28;20799;-82
2023/06/12 14:38:46;;;;;;;2.90;2.70;;;;;;;;;;5052214;28;20472;-81
2023/06/12 14:41:12;;;;;;;3.33;2.80;;;;;;;;;;5052949;28;20390;-80
2023/06/12 14:43:38;;;;;;;3.10;2.75;;;;;;;;;;5067647;28;20374;-81